createdAt,value
2023-02-24T00:01:51.599Z,72.08
2023-02-24T00:04:20.710Z,72.17
2023-02-24T00:06:48.122Z,73.41
2023-02-24T00:09:20.367Z,73.42
2023-02-24T00:11:53.717Z,72.71
2023-02-24T00:14:20.948Z,72.66
2023-02-24T00:16:48.103Z,73.03
2023-02-24T00:19:17.841Z,72.47
2023-02-24T00:21:45.524Z,72.98
2023-02-24T00:24:13.001Z,73.16
2023-02-24T00:26:40.281Z,72.78
2023-02-24T00:29:11.130Z,73.28
2023-02-24T00:31:42.870Z,73.31
2023-02-24T00:34:12.790Z,73.27
2023-02-24T00:36:39.566Z,73.02
2023-02-24T00:39:11.444Z,73.20
2023-02-24T00:41:44.633Z,73.19
2023-02-24T00:44:14.175Z,73.14
2023-02-24T00:46:44.719Z,72.98
2023-02-24T00:49:17.488Z,72.72
2023-02-24T00:51:47.168Z,72.62
2023-02-24T00:54:15.112Z,72.22
2023-02-24T00:56:47.103Z,72.13
2023-02-24T00:59:18.648Z,72.43
2023-02-24T01:01:46.068Z,72.50
2023-02-24T01:04:13.868Z,72.80
2023-02-24T01:06:46.130Z,72.18
2023-02-24T01:09:18.949Z,72.52
2023-02-24T01:12:07.183Z,73.07
2023-02-24T01:14:35.904Z,74.11
2023-02-24T01:17:04.748Z,74.15
2023-02-24T01:19:33.796Z,74.31
2023-02-24T01:22:08.111Z,74.48
2023-02-24T01:24:38.141Z,74.66
2023-02-24T01:27:07.326Z,75.78
2023-02-24T01:29:39.720Z,76.94
2023-02-24T01:32:14.829Z,76.36
2023-02-24T01:34:42.524Z,75.68
2023-02-24T01:37:09.969Z,74.78
2023-02-24T01:39:37.142Z,74.93
2023-02-24T01:42:06.117Z,75.57
2023-02-24T01:44:33.206Z,75.36
2023-02-24T01:47:01.429Z,75.06
2023-02-24T01:49:34.729Z,74.52
2023-02-24T01:52:08.212Z,74.14
2023-02-24T01:55:06.103Z,73.57
2023-02-24T01:57:35.544Z,73.29
2023-02-24T02:00:10.398Z,74.88
2023-02-24T02:02:45.759Z,74.66
2023-02-24T02:05:13.397Z,74.56
2023-02-24T02:07:41.675Z,74.32
2023-02-24T02:10:09.658Z,75.04
2023-02-24T02:12:44.355Z,75.23
2023-02-24T02:15:14.665Z,74.93
2023-02-24T02:18:07.434Z,74.27
2023-02-24T02:20:55.839Z,73.65
2023-02-24T02:23:32.224Z,73.63
2023-02-24T02:26:40.410Z,73.09
2023-02-24T02:29:28.433Z,73.23
2023-02-24T02:32:18.393Z,74.41
2023-02-24T02:35:00.336Z,75.13
2023-02-24T02:37:35.954Z,76.34
2023-02-24T02:40:20.817Z,76.18
2023-02-24T02:42:57.961Z,74.84
2023-02-24T02:45:41.575Z,76.75
2023-02-24T02:48:20.328Z,77.35
2023-02-24T02:50:54.907Z,78.21
2023-02-24T02:53:29.914Z,77.08
2023-02-24T02:56:07.307Z,77.80
2023-02-24T02:58:42.107Z,77.98
2023-02-24T03:01:12.004Z,79.40
2023-02-24T03:03:44.632Z,78.65
2023-02-24T03:06:22.172Z,77.67
2023-02-24T03:08:56.743Z,77.68
2023-02-24T03:11:24.193Z,77.25
2023-02-24T03:13:53.991Z,76.84
2023-02-24T03:16:23.170Z,76.64
2023-02-24T03:19:03.846Z,76.13
2023-02-24T03:21:38.013Z,75.59
2023-02-24T03:24:06.469Z,75.39
2023-02-24T03:26:43.770Z,75.24
2023-02-24T03:29:32.635Z,77.00
2023-02-24T03:32:04.798Z,78.63
2023-02-24T03:34:56.850Z,78.39
2023-02-24T03:37:27.947Z,78.66
2023-02-24T03:39:58.982Z,80.11
2023-02-24T03:42:33.790Z,80.18
2023-02-24T03:45:02.152Z,81.15
2023-02-24T03:47:30.262Z,80.99
2023-02-24T03:49:57.019Z,80.01
2023-02-24T03:52:57.750Z,80.31
2023-02-24T03:56:06.319Z,82.17
2023-02-24T03:59:12.985Z,81.56
2023-02-24T04:02:05.354Z,81.47
2023-02-24T04:04:45.509Z,80.95
2023-02-24T04:07:59.655Z,79.71
2023-02-24T04:10:34.064Z,79.16
2023-02-24T04:13:28.277Z,78.91
2023-02-24T04:16:01.670Z,78.51
2023-02-24T04:18:32.087Z,78.75
2023-02-24T04:21:02.977Z,79.27
2023-02-24T04:23:38.736Z,79.91
2023-02-24T04:26:06.631Z,80.08
2023-02-24T04:28:34.650Z,80.50
2023-02-24T04:31:10.022Z,80.35
2023-02-24T04:33:40.616Z,79.77
2023-02-24T04:36:09.175Z,80.93
2023-02-24T04:38:39.124Z,79.65
2023-02-24T04:41:06.118Z,79.31
2023-02-24T04:43:32.688Z,77.70
2023-02-24T04:45:59.500Z,77.46
2023-02-24T04:48:26.081Z,78.42
2023-02-24T04:50:55.114Z,78.54
2023-02-24T04:53:27.174Z,77.33
2023-02-24T04:55:56.187Z,76.68
2023-02-24T04:58:28.609Z,75.34
2023-02-24T05:00:56.077Z,75.80
2023-02-24T05:03:28.050Z,76.07
2023-02-24T05:05:57.020Z,76.22
2023-02-24T05:08:25.074Z,78.55
2023-02-24T05:10:51.953Z,79.05
2023-02-24T05:13:20.221Z,78.52
2023-02-24T05:15:48.301Z,78.76
2023-02-24T05:18:20.424Z,79.01
2023-02-24T05:21:07.984Z,78.16
2023-02-24T05:23:46.331Z,78.37
2023-02-24T05:26:18.548Z,77.65
2023-02-24T05:28:52.282Z,76.86
2023-02-24T05:31:26.366Z,76.47
2023-02-24T05:33:57.643Z,75.99
2023-02-24T05:36:26.106Z,77.93
2023-02-24T05:39:07.281Z,76.88
2023-02-24T05:41:36.463Z,77.84
2023-02-24T05:44:08.534Z,76.65
2023-02-24T05:46:38.387Z,75.76
2023-02-24T05:49:11.476Z,76.49
2023-02-24T05:51:39.263Z,75.43
2023-02-24T05:54:11.098Z,74.80
2023-02-24T05:56:40.070Z,76.53
2023-02-24T05:59:11.216Z,76.66
2023-02-24T06:01:45.558Z,76.71
2023-02-24T06:04:20.947Z,77.55
2023-02-24T06:06:58.104Z,76.78
2023-02-24T06:09:24.718Z,77.61
2023-02-24T06:11:51.544Z,77.86
2023-02-24T06:14:18.214Z,77.98
2023-02-24T06:16:44.861Z,78.13
2023-02-24T06:19:13.195Z,77.66
2023-02-24T06:21:42.031Z,77.17
2023-02-24T06:24:18.301Z,76.76
2023-02-24T06:26:46.000Z,76.35
2023-02-24T06:29:17.913Z,76.54
2023-02-24T06:31:45.055Z,76.30
2023-02-24T06:34:13.890Z,74.48
2023-02-24T06:36:40.900Z,75.38
2023-02-24T06:39:08.147Z,76.05
2023-02-24T06:41:37.847Z,76.53
2023-02-24T06:44:04.526Z,75.34
2023-02-24T06:46:31.620Z,74.68
2023-02-24T06:48:58.193Z,74.73
2023-02-24T06:51:24.904Z,76.13
2023-02-24T06:53:52.313Z,76.01
2023-02-24T06:56:19.911Z,74.26
2023-02-24T06:58:47.780Z,76.02
2023-02-24T07:01:16.552Z,73.67
2023-02-24T07:04:02.403Z,72.92
2023-02-24T07:06:31.474Z,74.28
2023-02-24T07:08:58.797Z,75.81
2023-02-24T07:11:27.711Z,76.23
2023-02-24T07:13:54.669Z,76.90
2023-02-24T07:16:25.205Z,76.55
2023-02-24T07:18:56.787Z,76.03
2023-02-24T07:21:30.151Z,75.18
2023-02-24T07:23:59.096Z,75.35
2023-02-24T07:26:27.843Z,74.27
2023-02-24T07:28:56.661Z,74.67
2023-02-24T07:31:26.076Z,75.07
2023-02-24T07:33:55.683Z,74.98
2023-02-24T07:36:23.361Z,74.17
2023-02-24T07:38:52.765Z,73.76
2023-02-24T07:41:22.724Z,72.94
2023-02-24T07:43:50.834Z,72.56
2023-02-24T07:46:20.648Z,74.02
2023-02-24T07:48:47.262Z,73.11
2023-02-24T07:51:19.363Z,73.44
2023-02-24T07:53:52.963Z,71.76
2023-02-24T07:56:26.853Z,71.71
2023-02-24T07:59:11.064Z,73.13
2023-02-24T08:01:41.921Z,73.47
2023-02-24T08:04:12.487Z,71.89
2023-02-24T08:06:45.463Z,72.24
2023-02-24T08:09:20.732Z,72.66
2023-02-24T08:11:53.588Z,72.45
2023-02-24T08:14:32.979Z,73.03
2023-02-24T08:16:59.731Z,73.12
2023-02-24T08:19:39.456Z,72.72
2023-02-24T08:22:19.740Z,72.01
2023-02-24T08:25:05.887Z,73.96
2023-02-24T08:27:38.969Z,73.42
2023-02-24T08:30:07.962Z,72.99
2023-02-24T08:32:39.061Z,73.37
2023-02-24T08:35:15.261Z,73.41
2023-02-24T08:37:48.332Z,73.77
2023-02-24T08:40:32.884Z,73.57
2023-02-24T08:43:17.173Z,72.96
2023-02-24T08:45:50.867Z,73.26
2023-02-24T08:48:26.804Z,73.62
2023-02-24T08:50:56.778Z,74.47
2023-02-24T08:53:29.623Z,74.11
2023-02-24T08:55:56.467Z,74.01
2023-02-24T08:58:27.132Z,73.99
2023-02-24T09:00:57.088Z,74.77
2023-02-24T09:03:29.784Z,75.91
2023-02-24T09:06:09.063Z,74.52
2023-02-24T09:08:38.649Z,74.21
2023-02-24T09:11:13.932Z,73.25
2023-02-24T09:13:51.919Z,72.66
2023-02-24T09:16:21.171Z,69.80
2023-02-24T09:19:07.764Z,71.54
2023-02-24T09:21:49.538Z,72.90
2023-02-24T09:24:27.029Z,72.50
2023-02-24T09:26:59.783Z,72.60
2023-02-24T09:29:49.173Z,73.66
2023-02-24T09:32:16.233Z,74.31
2023-02-24T09:34:47.281Z,73.01
2023-02-24T09:37:26.811Z,72.70
2023-02-24T09:39:54.488Z,72.56
2023-02-24T09:42:34.392Z,71.81
2023-02-24T09:45:11.477Z,72.19
2023-02-24T09:47:57.295Z,70.61
2023-02-24T09:51:04.129Z,72.64
2023-02-24T09:53:49.146Z,70.88
2023-02-24T09:56:22.083Z,72.07
2023-02-24T09:58:58.570Z,70.15
2023-02-24T10:01:42.957Z,69.87
2023-02-24T10:04:31.617Z,70.61
2023-02-24T10:07:11.038Z,71.69
2023-02-24T10:09:43.239Z,71.27
2023-02-24T10:12:19.045Z,70.23
2023-02-24T10:15:00.529Z,69.90
2023-02-24T10:17:40.251Z,70.51
2023-02-24T10:20:30.850Z,70.58
2023-02-24T10:23:10.424Z,70.24
2023-02-24T10:25:57.357Z,69.64
2023-02-24T10:28:36.000Z,69.62
2023-02-24T10:31:25.321Z,69.86
2023-02-24T10:33:59.461Z,69.53
2023-02-24T10:36:35.976Z,69.41
2023-02-24T10:39:15.822Z,69.07
2023-02-24T10:41:49.130Z,69.37
2023-02-24T10:44:24.240Z,68.83
2023-02-24T10:47:17.807Z,67.81
2023-02-24T10:49:58.494Z,68.31
2023-02-24T10:52:58.116Z,68.24
2023-02-24T10:55:44.943Z,68.22
2023-02-24T10:58:44.585Z,68.08
2023-02-24T11:01:21.045Z,67.90
2023-02-24T11:04:01.550Z,67.76
2023-02-24T11:06:41.741Z,68.34
2023-02-24T11:09:29.647Z,66.16
2023-02-24T11:12:19.227Z,66.85
2023-02-24T11:15:17.923Z,65.90
2023-02-24T11:17:49.000Z,67.80
2023-02-24T11:20:33.643Z,67.97
2023-02-24T11:23:14.863Z,66.93
2023-02-24T11:26:04.705Z,66.84
2023-02-24T11:28:39.217Z,68.26
2023-02-24T11:31:51.914Z,68.70
2023-02-24T11:34:43.159Z,67.60
2023-02-24T11:37:34.635Z,67.98
2023-02-24T11:40:16.608Z,68.99
2023-02-24T11:42:51.500Z,67.67
2023-02-24T11:45:22.750Z,68.36
2023-02-24T11:47:54.136Z,65.61
2023-02-24T11:50:32.179Z,67.43
2023-02-24T11:53:05.565Z,66.61
2023-02-24T11:55:42.972Z,65.92
2023-02-24T11:58:37.533Z,67.90
2023-02-24T12:01:18.481Z,67.72
2023-02-24T12:03:57.069Z,66.60
2023-02-24T12:06:33.055Z,66.24
2023-02-24T12:09:09.384Z,67.02
2023-02-24T12:11:43.793Z,66.76
2023-02-24T12:14:21.537Z,66.38
2023-02-24T12:16:56.530Z,67.81
2023-02-24T12:19:32.071Z,67.76
2023-02-24T12:22:05.883Z,67.67
2023-02-24T12:24:35.888Z,68.02
2023-02-24T12:27:19.431Z,69.02
2023-02-24T12:30:22.968Z,68.30
2023-02-24T12:33:07.419Z,68.59
2023-02-24T12:35:54.176Z,69.87
2023-02-24T12:38:48.803Z,70.23
2023-02-24T12:41:47.644Z,69.34
2023-02-24T12:44:44.319Z,69.02
2023-02-24T12:47:43.011Z,69.22
2023-02-24T12:50:46.699Z,68.70
2023-02-24T12:53:39.921Z,69.13
2023-02-24T12:56:25.216Z,70.06
2023-02-24T12:58:58.574Z,69.81
2023-02-24T13:01:48.540Z,70.01
2023-02-24T13:04:17.940Z,69.54
2023-02-24T13:07:15.274Z,70.00
2023-02-24T13:10:14.537Z,70.10
2023-02-24T13:12:59.769Z,69.63
2023-02-24T13:15:31.382Z,70.26
2023-02-24T13:17:58.482Z,69.82
2023-02-24T13:20:36.908Z,69.82
2023-02-24T13:23:19.497Z,68.74
2023-02-24T13:25:54.571Z,69.84
2023-02-24T13:28:27.815Z,69.52
2023-02-24T13:31:02.224Z,70.23
2023-02-24T13:33:44.089Z,69.87
2023-02-24T13:36:23.052Z,70.52
2023-02-24T13:38:52.694Z,70.66
2023-02-24T13:41:22.644Z,71.27
2023-02-24T13:44:18.546Z,70.94
2023-02-24T13:47:22.689Z,70.87
2023-02-24T13:50:26.301Z,70.99
2023-02-24T13:53:13.408Z,71.97
2023-02-24T13:56:09.781Z,73.80
2023-02-24T13:58:50.307Z,73.12
2023-02-24T14:01:19.188Z,85.89
2023-02-24T14:04:04.061Z,74.69
2023-02-24T14:06:31.337Z,74.31
2023-02-24T14:09:02.286Z,75.60
2023-02-24T14:11:34.775Z,75.35
2023-02-24T14:14:01.624Z,75.83
2023-02-24T14:16:39.979Z,77.06
2023-02-24T14:19:14.123Z,77.94
2023-02-24T14:21:51.869Z,78.02
2023-02-24T14:24:20.066Z,75.66
2023-02-24T14:26:57.611Z,74.87
2023-02-24T14:29:35.204Z,75.88
2023-02-24T14:32:23.183Z,74.06
2023-02-24T14:34:50.887Z,73.15
2023-02-24T14:37:23.296Z,70.19
2023-02-24T14:39:54.629Z,70.33
2023-02-24T14:42:21.947Z,69.14
2023-02-24T14:44:53.991Z,68.80
2023-02-24T14:47:23.992Z,70.39
2023-02-24T14:49:59.663Z,67.55
2023-02-24T14:52:39.080Z,66.35
2023-02-24T14:55:19.623Z,67.41
2023-02-24T14:58:00.249Z,66.09
2023-02-24T15:00:39.901Z,65.70
2023-02-24T15:03:15.934Z,64.46
2023-02-24T15:05:45.657Z,64.46
2023-02-24T15:08:39.458Z,62.80
2023-02-24T15:11:15.219Z,64.32
2023-02-24T15:13:46.220Z,63.02
2023-02-24T15:16:24.719Z,61.99
2023-02-24T15:18:54.151Z,61.84
2023-02-24T15:21:33.432Z,62.63
2023-02-24T15:24:18.729Z,62.27
2023-02-24T15:26:57.448Z,60.19
2023-02-24T15:29:27.663Z,59.24
2023-02-24T15:31:56.735Z,61.43
2023-02-24T15:34:32.278Z,59.54
2023-02-24T15:37:04.309Z,59.10
2023-02-24T15:39:32.556Z,58.97
2023-02-24T15:42:08.764Z,59.10
2023-02-24T15:44:36.520Z,58.15
2023-02-24T15:47:22.000Z,56.70
2023-02-24T15:49:48.735Z,59.20
2023-02-24T15:52:20.361Z,58.61
2023-02-24T15:54:46.985Z,59.03
2023-02-24T15:57:16.528Z,58.09
2023-02-24T15:59:43.967Z,58.57
2023-02-24T16:02:14.081Z,56.92
2023-02-24T16:04:40.751Z,57.58
2023-02-24T16:07:11.469Z,56.33
2023-02-24T16:09:40.914Z,56.17
2023-02-24T16:12:13.430Z,57.39
2023-02-24T16:14:41.058Z,56.72
2023-02-24T16:17:16.953Z,57.52
2023-02-24T16:19:44.238Z,57.50
2023-02-24T16:22:10.974Z,55.67
2023-02-24T16:24:38.160Z,57.37
2023-02-24T16:27:06.167Z,55.43
2023-02-24T16:29:32.780Z,54.92
2023-02-24T16:31:59.698Z,56.65
2023-02-24T16:34:26.411Z,55.17
2023-02-24T16:36:53.068Z,54.70
2023-02-24T16:39:19.684Z,56.52
2023-02-24T16:41:46.265Z,58.19
2023-02-24T16:44:12.960Z,56.33
2023-02-24T16:46:43.696Z,56.14
2023-02-24T16:49:17.674Z,55.91
2023-02-24T16:51:44.355Z,54.96
2023-02-24T16:54:10.954Z,56.07
2023-02-24T16:56:38.041Z,56.78
2023-02-24T16:59:04.598Z,54.74
2023-02-24T17:01:31.653Z,55.92
2023-02-24T17:03:58.713Z,57.00
2023-02-24T17:06:26.112Z,55.14
2023-02-24T17:08:53.008Z,57.71
2023-02-24T17:11:21.181Z,56.26
2023-02-24T17:13:47.833Z,54.99
2023-02-24T17:16:14.448Z,55.84
2023-02-24T17:18:41.143Z,56.65
2023-02-24T17:21:09.520Z,54.22
2023-02-24T17:23:36.111Z,54.90
2023-02-24T17:26:02.944Z,56.04
2023-02-24T17:28:29.854Z,56.31
2023-02-24T17:30:56.617Z,57.61
2023-02-24T17:33:23.593Z,57.43
2023-02-24T17:35:50.437Z,54.80
2023-02-24T17:38:19.935Z,56.76
2023-02-24T17:40:47.711Z,57.06
2023-02-24T17:43:14.377Z,58.21
2023-02-24T17:45:44.689Z,58.16
2023-02-24T17:48:12.878Z,57.92
2023-02-24T17:50:43.936Z,58.50
2023-02-24T17:53:10.568Z,59.00
2023-02-24T17:55:37.580Z,56.72
2023-02-24T17:58:04.772Z,57.10
2023-02-24T18:00:31.482Z,56.87
2023-02-24T18:02:58.223Z,55.94
2023-02-24T18:05:25.165Z,57.10
2023-02-24T18:07:53.508Z,56.67
2023-02-24T18:10:20.257Z,57.85
2023-02-24T18:12:46.988Z,57.93
2023-02-24T18:15:13.541Z,55.54
2023-02-24T18:17:40.227Z,55.54
2023-02-24T18:20:08.761Z,57.08
2023-02-24T18:22:35.776Z,56.52
2023-02-24T18:25:02.782Z,57.73
2023-02-24T18:27:29.687Z,58.85
2023-02-24T18:29:56.312Z,59.07
2023-02-24T18:32:23.128Z,57.46
2023-02-24T18:34:49.808Z,59.52
2023-02-24T18:37:16.482Z,59.69
2023-02-24T18:39:43.077Z,58.83
2023-02-24T18:42:09.962Z,59.17
2023-02-24T18:44:36.588Z,59.60
2023-02-24T18:47:09.292Z,59.83
2023-02-24T18:49:36.455Z,60.27
2023-02-24T18:52:05.274Z,58.82
2023-02-24T18:54:33.095Z,58.91
2023-02-24T18:56:59.773Z,56.37
2023-02-24T18:59:26.362Z,59.24
2023-02-24T19:01:54.018Z,59.82
2023-02-24T19:04:20.671Z,59.99
2023-02-24T19:06:49.077Z,60.51
2023-02-24T19:09:16.704Z,60.61
2023-02-24T19:11:43.305Z,59.35
2023-02-24T19:14:13.378Z,60.72
2023-02-24T19:16:40.651Z,59.68
2023-02-24T19:19:07.432Z,59.49
2023-02-24T19:21:34.150Z,60.63
2023-02-24T19:24:03.548Z,60.10
2023-02-24T19:26:30.409Z,61.13
2023-02-24T19:28:58.586Z,60.19
2023-02-24T19:31:29.216Z,60.46
2023-02-24T19:34:00.204Z,61.61
2023-02-24T19:36:28.348Z,61.10
2023-02-24T19:38:55.461Z,61.07
2023-02-24T19:41:22.290Z,60.79
2023-02-24T19:43:49.008Z,63.01
2023-02-24T19:46:16.897Z,63.27
2023-02-24T19:48:43.671Z,62.38
2023-02-24T19:51:14.732Z,61.47
2023-02-24T19:53:41.517Z,61.47
2023-02-24T19:56:08.195Z,60.22
2023-02-24T19:58:35.881Z,61.75
2023-02-24T20:01:10.744Z,60.41
2023-02-24T20:03:38.922Z,60.34
2023-02-24T20:06:06.167Z,60.61
2023-02-24T20:08:34.841Z,58.11
2023-02-24T20:11:03.336Z,60.42
2023-02-24T20:13:30.406Z,58.82
2023-02-24T20:16:14.135Z,60.88
2023-02-24T20:18:42.417Z,61.67
2023-02-24T20:21:10.972Z,61.42
2023-02-24T20:23:38.994Z,60.55
2023-02-24T20:26:06.660Z,62.08
2023-02-24T20:28:33.320Z,61.44
2023-02-24T20:31:06.792Z,60.70
2023-02-24T20:33:33.593Z,59.00
2023-02-24T20:36:00.320Z,59.39
2023-02-24T20:38:29.060Z,60.35
2023-02-24T20:40:58.886Z,58.52
2023-02-24T20:43:26.738Z,59.10
2023-02-24T20:45:53.335Z,57.58
2023-02-24T20:48:20.049Z,59.32
2023-02-24T20:50:46.700Z,59.95
2023-02-24T20:53:13.410Z,59.42
2023-02-24T20:55:39.967Z,59.63
2023-02-24T20:58:07.190Z,59.41
2023-02-24T21:00:34.280Z,60.49
2023-02-24T21:03:01.348Z,60.72
2023-02-24T21:05:28.021Z,59.84
2023-02-24T21:07:54.720Z,61.02
2023-02-24T21:10:25.827Z,60.54
2023-02-24T21:12:52.932Z,60.91
2023-02-24T21:15:20.072Z,60.12
2023-02-24T21:17:46.804Z,60.92
2023-02-24T21:20:13.697Z,61.23
2023-02-24T21:22:41.092Z,60.95
2023-02-24T21:25:10.822Z,60.65
2023-02-24T21:27:38.362Z,59.49
2023-02-24T21:30:06.976Z,58.24
2023-02-24T21:32:33.942Z,60.95
2023-02-24T21:35:00.592Z,60.53
2023-02-24T21:37:27.407Z,61.23
2023-02-24T21:39:53.997Z,61.81
2023-02-24T21:42:22.204Z,60.71
2023-02-24T21:44:51.030Z,60.53
2023-02-24T21:47:18.458Z,59.66
2023-02-24T21:49:46.176Z,60.94
2023-02-24T21:52:13.106Z,60.62
2023-02-24T21:54:40.009Z,60.95
2023-02-24T21:57:06.764Z,61.92
2023-02-24T21:59:33.362Z,62.25
2023-02-24T22:02:00.169Z,61.57
2023-02-24T22:04:28.965Z,62.68
2023-02-24T22:06:57.972Z,61.82
2023-02-24T22:09:25.497Z,61.42
2023-02-24T22:11:52.165Z,60.77
2023-02-24T22:14:18.898Z,60.59
2023-02-24T22:16:45.768Z,61.01
2023-02-24T22:19:12.523Z,61.61
2023-02-24T22:21:42.248Z,60.71
2023-02-24T22:24:12.922Z,60.92
2023-02-24T22:26:40.185Z,60.02
2023-02-24T22:29:07.073Z,60.50
2023-02-24T22:31:34.948Z,60.66
2023-02-24T22:34:04.351Z,60.93
2023-02-24T22:36:33.668Z,61.55
2023-02-24T22:39:01.284Z,60.01
2023-02-24T22:41:32.770Z,59.52
2023-02-24T22:44:00.949Z,60.12
2023-02-24T22:46:30.545Z,58.33
2023-02-24T22:48:57.790Z,59.66
2023-02-24T22:51:25.050Z,59.17
2023-02-24T22:53:52.730Z,59.35
2023-02-24T22:56:23.261Z,60.09
2023-02-24T22:58:50.802Z,60.36
2023-02-24T23:01:29.912Z,60.43
2023-02-24T23:04:00.608Z,60.88
2023-02-24T23:06:27.693Z,59.88
2023-02-24T23:08:54.645Z,60.24
2023-02-24T23:11:32.495Z,61.00
2023-02-24T23:14:02.168Z,59.76
2023-02-24T23:16:31.702Z,61.06
2023-02-24T23:19:00.907Z,60.77
2023-02-24T23:21:37.758Z,59.80
2023-02-24T23:24:06.379Z,59.87
2023-02-24T23:26:34.280Z,60.30
2023-02-24T23:29:01.761Z,59.82
2023-02-24T23:31:29.035Z,60.34
2023-02-24T23:33:55.670Z,58.51
2023-02-24T23:36:23.937Z,59.00
2023-02-24T23:38:51.801Z,60.26
2023-02-24T23:41:19.378Z,58.60
2023-02-24T23:43:45.984Z,59.72
2023-02-24T23:46:13.245Z,59.82
2023-02-24T23:48:40.457Z,60.29
2023-02-24T23:51:12.322Z,58.55
2023-02-24T23:53:43.940Z,59.49
2023-02-24T23:56:18.007Z,60.65
2023-02-24T23:58:48.995Z,60.94
